createdAt,value
2019-05-19T00:00:09.385Z,18.62
2019-05-19T00:02:41.154Z,18.48
2019-05-19T00:05:12.366Z,21.80
2019-05-19T00:07:41.980Z,19.73
2019-05-19T00:10:11.840Z,24.35
2019-05-19T00:12:41.580Z,16.65
2019-05-19T00:15:11.291Z,24.00
2019-05-19T00:17:40.986Z,19.32
2019-05-19T00:20:10.686Z,17.90
2019-05-19T00:22:40.338Z,23.27
2019-05-19T00:25:10.054Z,17.90
2019-05-19T00:27:41.808Z,17.90
2019-05-19T00:30:12.196Z,23.27
2019-05-19T00:32:41.831Z,20.48
2019-05-19T00:35:11.526Z,17.65
2019-05-19T00:37:41.158Z,16.15
2019-05-19T00:40:10.867Z,14.45
2019-05-19T00:42:40.580Z,16.27
2019-05-19T00:45:11.272Z,22.75
2019-05-19T00:47:40.978Z,19.85
2019-05-19T00:50:10.987Z,19.48
2019-05-19T00:52:43.112Z,16.37
2019-05-19T00:55:12.941Z,15.95
2019-05-19T00:57:42.983Z,16.77
2019-05-19T01:00:13.359Z,20.45
2019-05-19T01:02:43.011Z,27.20
2019-05-19T01:05:24.776Z,22.10
2019-05-19T01:07:54.459Z,14.15
2019-05-19T01:10:24.225Z,16.67
2019-05-19T01:12:53.980Z,14.20
2019-05-19T01:15:23.698Z,17.27
2019-05-19T01:17:56.619Z,14.33
2019-05-19T01:20:26.312Z,17.62
2019-05-19T01:22:55.929Z,20.43
2019-05-19T01:25:27.690Z,22.73
2019-05-19T01:28:00.481Z,19.50
2019-05-19T01:30:30.341Z,23.70
2019-05-19T01:32:59.952Z,15.08
2019-05-19T01:35:29.616Z,16.10
2019-05-19T01:38:05.423Z,22.45
2019-05-19T01:40:36.672Z,11.43
2019-05-19T01:43:06.358Z,11.88
2019-05-19T01:45:36.079Z,15.20
2019-05-19T01:48:05.769Z,19.45
2019-05-19T01:50:35.409Z,21.87
2019-05-19T01:53:05.996Z,22.75
2019-05-19T01:55:35.630Z,14.25
2019-05-19T01:58:05.353Z,18.92
2019-05-19T02:00:35.062Z,18.30
2019-05-19T02:03:04.788Z,18.80
2019-05-19T02:05:34.494Z,19.95
2019-05-19T02:08:04.262Z,12.82
2019-05-19T02:10:35.457Z,17.48
2019-05-19T02:13:07.755Z,30.65
2019-05-19T02:15:37.362Z,19.02
2019-05-19T02:18:07.146Z,14.18
2019-05-19T02:20:36.774Z,18.23
2019-05-19T02:23:06.431Z,18.00
2019-05-19T02:25:36.068Z,15.98
2019-05-19T02:28:05.767Z,14.07
2019-05-19T02:30:37.030Z,17.35
2019-05-19T02:33:08.275Z,18.73
2019-05-19T02:35:38.879Z,23.18
2019-05-19T02:38:08.500Z,14.00
2019-05-19T02:40:44.033Z,15.95
2019-05-19T02:43:17.100Z,19.55
2019-05-19T02:45:50.832Z,21.37
2019-05-19T02:48:20.807Z,17.87
2019-05-19T02:50:53.040Z,17.12
2019-05-19T02:53:32.903Z,13.28
2019-05-19T02:56:06.022Z,21.23
2019-05-19T02:58:38.134Z,13.60
2019-05-19T03:01:07.777Z,18.15
2019-05-19T03:03:38.582Z,12.65
2019-05-19T03:06:08.262Z,16.27
2019-05-19T03:08:40.149Z,18.00
2019-05-19T03:11:09.855Z,17.57
2019-05-19T03:13:39.485Z,17.87
2019-05-19T03:16:09.118Z,15.18
2019-05-19T03:18:39.736Z,14.15
2019-05-19T03:21:12.319Z,23.75
2019-05-19T03:23:42.011Z,11.28
2019-05-19T03:26:11.644Z,19.90
2019-05-19T03:28:41.279Z,19.40
2019-05-19T03:31:41.704Z,24.23
2019-05-19T03:34:11.726Z,14.18
2019-05-19T03:36:41.352Z,17.57
2019-05-19T03:39:19.607Z,26.73
2019-05-19T03:41:49.304Z,20.55
2019-05-19T03:44:22.354Z,19.40
2019-05-19T03:46:52.052Z,17.62
2019-05-19T03:49:21.751Z,15.48
2019-05-19T03:51:51.414Z,22.90
2019-05-19T03:54:21.071Z,18.30
2019-05-19T03:56:50.706Z,20.30
2019-05-19T03:59:20.337Z,20.05
2019-05-19T04:01:56.174Z,12.00
2019-05-19T04:04:25.820Z,13.22
2019-05-19T04:06:55.780Z,14.60
2019-05-19T04:09:27.916Z,11.50
2019-05-19T04:11:57.561Z,15.30
2019-05-19T04:14:27.200Z,12.47
2019-05-19T04:16:56.861Z,10.63
2019-05-19T04:19:27.457Z,8.85
2019-05-19T04:21:57.088Z,16.05
2019-05-19T04:24:26.849Z,15.25
2019-05-19T04:26:56.471Z,18.27
2019-05-19T04:29:26.121Z,11.50
2019-05-19T04:31:55.776Z,11.03
2019-05-19T04:34:25.430Z,15.95
2019-05-19T04:36:55.041Z,15.32
2019-05-19T04:39:24.683Z,12.68
2019-05-19T04:41:54.301Z,18.35
2019-05-19T04:44:24.473Z,8.43
2019-05-19T04:46:54.114Z,15.43
2019-05-19T04:49:23.742Z,11.45
2019-05-19T04:52:06.051Z,8.70
2019-05-19T04:54:25.003Z,11.65
2019-05-19T04:56:56.206Z,8.70
2019-05-19T04:59:25.896Z,21.07
2019-05-19T05:01:55.517Z,9.78
2019-05-19T05:04:29.071Z,10.40
2019-05-19T05:06:59.377Z,7.17
2019-05-19T05:09:33.537Z,12.90
2019-05-19T05:12:03.204Z,9.43
2019-05-19T05:14:33.859Z,9.13
2019-05-19T05:17:03.531Z,9.98
2019-05-19T05:19:33.144Z,11.50
2019-05-19T05:22:02.926Z,13.80
2019-05-19T05:24:32.563Z,12.88
2019-05-19T05:27:05.391Z,10.55
2019-05-19T05:29:35.048Z,16.30
2019-05-19T05:32:04.892Z,12.78
2019-05-19T05:34:37.553Z,14.98
2019-05-19T05:37:07.256Z,10.50
2019-05-19T05:39:36.885Z,10.08
2019-05-19T05:42:07.783Z,10.98
2019-05-19T05:44:37.416Z,17.77
2019-05-19T05:47:07.062Z,12.00
2019-05-19T05:49:36.703Z,12.88
2019-05-19T05:52:06.330Z,10.65
2019-05-19T05:54:36.042Z,11.75
2019-05-19T05:57:06.748Z,10.68
2019-05-19T05:59:36.389Z,8.65
2019-05-19T06:02:06.084Z,8.20
2019-05-19T06:04:35.804Z,12.63
2019-05-19T06:07:08.231Z,10.55
2019-05-19T06:09:37.998Z,8.93
2019-05-19T06:12:07.635Z,11.05
2019-05-19T06:14:37.315Z,7.80
2019-05-19T06:17:07.103Z,11.43
2019-05-19T06:19:38.340Z,7.62
2019-05-19T06:22:08.323Z,11.30
2019-05-19T06:24:38.027Z,6.67
2019-05-19T06:27:07.651Z,10.65
2019-05-19T06:29:37.291Z,10.82
2019-05-19T06:32:17.007Z,11.05
2019-05-19T06:34:46.705Z,11.68
2019-05-19T06:37:17.402Z,7.75
2019-05-19T06:39:47.042Z,15.03
2019-05-19T06:42:16.784Z,11.73
2019-05-19T06:44:46.479Z,7.45
2019-05-19T06:47:16.116Z,10.32
2019-05-19T06:49:45.749Z,10.10
2019-05-19T06:52:15.410Z,7.37
2019-05-19T06:54:46.828Z,7.25
2019-05-19T06:57:16.469Z,7.12
2019-05-19T06:59:51.173Z,10.25
2019-05-19T07:02:21.134Z,11.90
2019-05-19T07:04:50.928Z,8.13
2019-05-19T07:07:20.717Z,7.53
2019-05-19T07:09:58.644Z,6.25
2019-05-19T07:12:33.499Z,5.53
2019-05-19T07:15:06.217Z,7.47
2019-05-19T07:17:35.866Z,7.30
2019-05-19T07:20:07.396Z,10.82
2019-05-19T07:22:40.058Z,9.50
2019-05-19T07:25:12.739Z,9.55
2019-05-19T07:27:42.358Z,6.47
2019-05-19T07:30:12.439Z,7.95
2019-05-19T07:32:43.373Z,7.67
2019-05-19T07:35:15.559Z,7.00
2019-05-19T07:37:46.607Z,10.13
2019-05-19T07:40:17.414Z,12.03
2019-05-19T07:42:47.184Z,9.98
2019-05-19T07:45:20.001Z,10.35
2019-05-19T07:47:50.929Z,6.10
2019-05-19T07:50:23.628Z,9.90
2019-05-19T07:52:53.283Z,12.43
2019-05-19T07:55:22.905Z,13.10
2019-05-19T07:57:52.572Z,11.68
2019-05-19T08:00:22.383Z,5.90
2019-05-19T08:02:52.036Z,9.60
2019-05-19T08:05:21.742Z,11.65
2019-05-19T08:07:51.448Z,9.40
2019-05-19T08:10:23.786Z,16.05
2019-05-19T08:12:53.555Z,8.18
2019-05-19T08:15:23.825Z,12.37
2019-05-19T08:17:53.863Z,8.03
2019-05-19T08:20:23.646Z,10.63
2019-05-19T08:22:53.474Z,10.48
2019-05-19T08:25:23.095Z,12.88
2019-05-19T08:28:07.737Z,11.95
2019-05-19T08:30:28.155Z,11.35
2019-05-19T08:32:57.787Z,9.50
2019-05-19T08:35:27.430Z,9.88
2019-05-19T08:37:57.252Z,12.07
2019-05-19T08:40:26.964Z,9.03
2019-05-19T08:42:56.582Z,8.50
2019-05-19T08:45:26.481Z,11.30
2019-05-19T08:47:56.173Z,10.95
2019-05-19T08:50:25.812Z,13.08
2019-05-19T08:52:55.436Z,9.15
2019-05-19T08:55:25.076Z,9.65
2019-05-19T08:57:59.444Z,15.32
2019-05-19T09:00:29.060Z,8.75
2019-05-19T09:02:58.708Z,11.80
2019-05-19T09:05:29.705Z,10.23
2019-05-19T09:07:59.710Z,10.53
2019-05-19T09:10:29.419Z,11.48
2019-05-19T09:12:59.063Z,8.63
2019-05-19T09:15:28.842Z,10.85
2019-05-19T09:17:58.477Z,15.43
2019-05-19T09:20:28.225Z,14.13
2019-05-19T09:22:58.029Z,9.80
2019-05-19T09:25:27.695Z,11.33
2019-05-19T09:27:57.415Z,12.33
2019-05-19T09:30:28.096Z,9.33
2019-05-19T09:32:57.731Z,10.38
2019-05-19T09:35:27.345Z,6.95
2019-05-19T09:37:57.037Z,10.03
2019-05-19T09:40:26.888Z,14.87
2019-05-19T09:42:56.621Z,8.98
2019-05-19T09:45:26.337Z,7.78
2019-05-19T09:47:56.103Z,10.08
2019-05-19T09:50:25.770Z,11.88
2019-05-19T09:52:55.690Z,10.45
2019-05-19T09:55:26.588Z,11.03
2019-05-19T09:57:56.455Z,8.03
2019-05-19T10:00:26.333Z,11.57
2019-05-19T10:02:56.033Z,8.60
2019-05-19T10:05:27.052Z,11.35
2019-05-19T10:07:56.744Z,34.08
2019-05-19T10:11:01.317Z,37.75
2019-05-19T10:13:37.851Z,36.75
2019-05-19T10:16:07.576Z,26.97
2019-05-19T10:18:37.361Z,31.93
2019-05-19T10:21:07.044Z,28.77
2019-05-19T10:23:37.690Z,30.50
2019-05-19T10:26:07.399Z,22.85
2019-05-19T10:28:37.040Z,26.77
2019-05-19T10:31:06.672Z,29.02
2019-05-19T10:33:36.301Z,34.03
2019-05-19T10:36:06.020Z,22.48
2019-05-19T10:38:36.923Z,24.57
2019-05-19T10:41:06.601Z,29.57
2019-05-19T10:43:36.262Z,31.62
2019-05-19T10:46:06.041Z,27.62
2019-05-19T10:48:35.670Z,28.98
2019-05-19T10:51:07.367Z,28.20
2019-05-19T10:53:37.027Z,32.38
2019-05-19T10:56:06.775Z,26.60
2019-05-19T10:58:36.514Z,31.10
2019-05-19T11:01:06.158Z,42.05
2019-05-19T11:03:37.389Z,28.85
2019-05-19T11:06:07.168Z,30.62
2019-05-19T11:08:39.238Z,25.65
2019-05-19T11:11:08.946Z,28.25
2019-05-19T11:13:41.066Z,28.92
2019-05-19T11:16:10.901Z,30.43
2019-05-19T11:18:40.734Z,33.00
2019-05-19T11:21:10.474Z,44.33
2019-05-19T11:23:43.967Z,28.32
2019-05-19T11:26:13.606Z,36.33
2019-05-19T11:28:44.967Z,34.85
2019-05-19T11:31:14.610Z,31.27
2019-05-19T11:33:44.255Z,21.17
2019-05-19T11:36:13.988Z,48.17
2019-05-19T11:38:43.631Z,25.02
2019-05-19T11:41:13.256Z,26.77
2019-05-19T11:43:46.380Z,36.93
2019-05-19T11:46:18.347Z,35.43
2019-05-19T11:48:51.475Z,39.20
2019-05-19T11:51:22.852Z,37.25
2019-05-19T11:53:52.570Z,31.33
2019-05-19T11:56:22.273Z,29.42
2019-05-19T11:58:51.892Z,30.92
2019-05-19T12:01:21.601Z,30.52
2019-05-19T12:03:55.426Z,25.35
2019-05-19T12:06:38.060Z,26.75
2019-05-19T12:08:55.713Z,26.65
2019-05-19T12:11:25.408Z,30.55
2019-05-19T12:13:58.007Z,34.53
2019-05-19T12:16:27.772Z,30.62
2019-05-19T12:18:59.748Z,21.57
2019-05-19T12:21:29.458Z,37.88
2019-05-19T12:23:59.128Z,28.70
2019-05-19T12:26:28.826Z,29.75
2019-05-19T12:28:59.029Z,25.72
2019-05-19T12:31:30.228Z,23.45
2019-05-19T12:33:59.902Z,26.37
2019-05-19T12:36:33.405Z,25.75
2019-05-19T12:39:04.571Z,26.60
2019-05-19T12:41:34.685Z,20.10
2019-05-19T12:44:08.134Z,16.82
2019-05-19T12:46:37.735Z,17.73
2019-05-19T12:49:07.453Z,18.73
2019-05-19T12:51:39.639Z,17.07
2019-05-19T12:54:11.240Z,21.40
2019-05-19T12:56:42.490Z,14.35
2019-05-19T12:59:14.867Z,16.50
2019-05-19T13:01:44.512Z,20.57
2019-05-19T13:04:14.131Z,20.35
2019-05-19T13:06:46.461Z,11.70
2019-05-19T13:09:17.845Z,13.10
2019-05-19T13:11:47.543Z,15.08
2019-05-19T13:14:22.568Z,8.78
2019-05-19T13:16:54.549Z,11.83
2019-05-19T13:19:24.246Z,17.17
2019-05-19T13:21:53.913Z,12.33
2019-05-19T13:24:23.543Z,25.27
2019-05-19T13:26:56.495Z,15.83
2019-05-19T13:29:24.587Z,19.42
2019-05-19T13:31:54.210Z,16.93
2019-05-19T13:34:23.904Z,23.95
2019-05-19T13:36:55.492Z,22.10
2019-05-19T13:39:25.123Z,26.23
2019-05-19T13:41:54.741Z,16.30
2019-05-19T13:44:25.336Z,13.88
2019-05-19T13:46:57.347Z,13.35
2019-05-19T13:49:27.002Z,11.45
2019-05-19T13:51:59.049Z,9.88
2019-05-19T13:54:28.771Z,10.50
2019-05-19T13:57:11.392Z,10.35
2019-05-19T13:59:29.692Z,8.80
2019-05-19T14:01:59.327Z,13.38
2019-05-19T14:04:28.975Z,9.88
2019-05-19T14:06:58.637Z,15.63
2019-05-19T14:09:29.526Z,14.15
2019-05-19T14:11:59.313Z,12.55
2019-05-19T14:14:28.970Z,9.43
2019-05-19T14:16:58.750Z,17.67
2019-05-19T14:19:28.552Z,10.93
2019-05-19T14:21:58.239Z,10.13
2019-05-19T14:24:27.899Z,18.12
2019-05-19T14:26:57.562Z,13.93
2019-05-19T14:29:28.436Z,15.48
2019-05-19T14:31:58.066Z,10.03
2019-05-19T14:34:27.701Z,18.30
2019-05-19T14:36:57.313Z,14.23
2019-05-19T14:39:27.012Z,26.12
2019-05-19T14:42:00.496Z,21.75
2019-05-19T14:44:30.198Z,11.53
2019-05-19T14:46:59.828Z,16.17
2019-05-19T14:49:29.529Z,10.85
2019-05-19T14:51:59.166Z,13.65
2019-05-19T14:54:28.809Z,12.05
2019-05-19T14:56:58.484Z,12.03
2019-05-19T14:59:28.157Z,14.93
2019-05-19T15:01:59.050Z,13.35
2019-05-19T15:04:28.795Z,10.28
2019-05-19T15:06:58.492Z,12.93
2019-05-19T15:09:28.168Z,14.00
2019-05-19T15:12:00.242Z,12.82
2019-05-19T15:14:31.144Z,15.18
2019-05-19T15:17:00.756Z,14.87
2019-05-19T15:19:30.490Z,11.88
2019-05-19T15:22:00.113Z,14.73
2019-05-19T15:24:29.911Z,17.52
2019-05-19T15:27:00.539Z,12.93
2019-05-19T15:29:30.343Z,12.47
2019-05-19T15:32:06.086Z,10.65
2019-05-19T15:34:35.725Z,14.90
2019-05-19T15:37:06.980Z,11.33
2019-05-19T15:39:36.627Z,11.38
2019-05-19T15:42:06.337Z,11.12
2019-05-19T15:44:35.975Z,12.63
2019-05-19T15:47:05.739Z,16.17
2019-05-19T15:49:35.531Z,9.55
2019-05-19T15:52:06.316Z,15.13
2019-05-19T15:54:36.251Z,10.30
2019-05-19T15:57:08.524Z,15.05
2019-05-19T15:59:41.592Z,13.10
2019-05-19T16:02:16.007Z,14.53
2019-05-19T16:04:45.734Z,17.95
2019-05-19T16:07:15.520Z,26.55
2019-05-19T16:09:45.997Z,18.57
2019-05-19T16:12:15.643Z,9.65
2019-05-19T16:14:50.821Z,16.95
2019-05-19T16:17:20.491Z,12.15
2019-05-19T16:19:50.381Z,16.52
2019-05-19T16:22:20.032Z,10.30
2019-05-19T16:24:52.275Z,14.30
2019-05-19T16:27:21.933Z,10.60
2019-05-19T16:29:54.465Z,14.75
2019-05-19T16:32:24.097Z,11.70
2019-05-19T16:34:53.761Z,15.70
2019-05-19T16:37:23.439Z,18.15
2019-05-19T16:39:53.148Z,14.85
2019-05-19T16:42:25.225Z,16.10
2019-05-19T16:44:56.022Z,12.90
2019-05-19T16:47:25.637Z,21.85
2019-05-19T16:50:03.161Z,19.73
2019-05-19T16:52:32.798Z,14.43
2019-05-19T16:55:24.096Z,13.08
2019-05-19T16:57:53.955Z,14.53
2019-05-19T17:00:24.923Z,20.40
2019-05-19T17:02:59.260Z,16.62
2019-05-19T17:05:29.855Z,11.83
2019-05-19T17:07:59.540Z,13.98
2019-05-19T17:10:29.171Z,16.85
2019-05-19T17:13:00.472Z,22.98
2019-05-19T17:15:30.611Z,11.73
2019-05-19T17:18:00.388Z,19.42
2019-05-19T17:20:38.998Z,18.65
2019-05-19T17:23:08.787Z,12.03
2019-05-19T17:25:38.443Z,13.00
2019-05-19T17:28:08.185Z,16.60
2019-05-19T17:30:43.997Z,13.65
2019-05-19T17:33:16.516Z,9.95
2019-05-19T17:35:46.162Z,15.98
2019-05-19T17:38:15.870Z,12.23
2019-05-19T17:40:48.316Z,21.57
2019-05-19T17:43:25.493Z,15.48
2019-05-19T17:45:56.920Z,10.70
2019-05-19T17:48:27.118Z,13.30
2019-05-19T17:50:58.490Z,11.20
2019-05-19T17:53:28.210Z,18.75
2019-05-19T17:55:58.581Z,8.85
2019-05-19T17:58:31.276Z,10.78
2019-05-19T18:01:02.277Z,22.52
2019-05-19T18:03:33.884Z,12.25
2019-05-19T18:06:07.094Z,8.20
2019-05-19T18:08:36.704Z,9.10
2019-05-19T18:11:06.487Z,11.55
2019-05-19T18:13:36.118Z,10.63
2019-05-19T18:16:14.790Z,13.40
2019-05-19T18:18:44.778Z,12.68
2019-05-19T18:21:14.760Z,15.55
2019-05-19T18:23:46.009Z,9.80
2019-05-19T18:26:15.640Z,9.40
2019-05-19T18:28:45.340Z,14.78
2019-05-19T18:31:15.956Z,19.50
2019-05-19T18:33:46.987Z,9.40
2019-05-19T18:36:16.645Z,7.72
2019-05-19T18:38:46.297Z,13.20
2019-05-19T18:41:17.552Z,18.20
2019-05-19T18:43:49.202Z,8.45
2019-05-19T18:46:18.617Z,9.38
2019-05-19T18:48:48.267Z,15.25
2019-05-19T18:51:19.849Z,9.65
2019-05-19T18:53:49.499Z,16.35
2019-05-19T18:56:19.153Z,14.55
2019-05-19T18:58:49.996Z,8.33
2019-05-19T19:01:19.724Z,7.85
2019-05-19T19:03:51.829Z,7.30
2019-05-19T19:06:21.736Z,6.70
2019-05-19T19:08:54.587Z,10.68
2019-05-19T19:11:24.232Z,10.32
2019-05-19T19:14:00.984Z,5.55
2019-05-19T19:16:30.683Z,11.25
2019-05-19T19:19:00.319Z,7.83
2019-05-19T19:21:30.026Z,6.92
2019-05-19T19:23:59.855Z,8.33
2019-05-19T19:26:30.555Z,5.87
2019-05-19T19:29:00.267Z,7.75
2019-05-19T19:31:29.983Z,10.30
2019-05-19T19:33:59.647Z,8.68
2019-05-19T19:36:29.361Z,9.23
2019-05-19T19:38:59.387Z,6.87
2019-05-19T19:41:29.008Z,7.75
2019-05-19T19:43:58.629Z,7.53
2019-05-19T19:46:29.452Z,6.65
2019-05-19T19:48:59.183Z,8.15
2019-05-19T19:51:28.789Z,6.83
2019-05-19T19:53:58.817Z,16.80
2019-05-19T19:56:28.482Z,16.55
2019-05-19T19:58:58.182Z,9.15
2019-05-19T20:01:27.902Z,7.03
2019-05-19T20:03:57.550Z,7.12
2019-05-19T20:06:30.381Z,10.18
2019-05-19T20:09:05.147Z,8.75
2019-05-19T20:11:34.838Z,5.42
2019-05-19T20:14:04.581Z,6.80
2019-05-19T20:16:35.387Z,9.88
2019-05-19T20:19:07.274Z,11.00
2019-05-19T20:21:37.430Z,8.43
2019-05-19T20:24:07.047Z,9.40
2019-05-19T20:26:36.668Z,7.45
2019-05-19T20:29:06.348Z,9.55
2019-05-19T20:31:36.180Z,11.85
2019-05-19T20:34:05.828Z,5.83
2019-05-19T20:36:35.531Z,15.03
2019-05-19T20:39:09.600Z,7.45
2019-05-19T20:41:39.234Z,9.28
2019-05-19T20:44:08.910Z,6.67
2019-05-19T20:46:38.836Z,9.85
2019-05-19T20:49:08.919Z,9.78
2019-05-19T20:51:38.753Z,11.40
2019-05-19T20:54:08.641Z,7.20
2019-05-19T20:56:41.411Z,9.38
2019-05-19T20:59:11.448Z,10.98
2019-05-19T21:01:41.239Z,5.10
2019-05-19T21:04:10.909Z,13.45
2019-05-19T21:06:40.539Z,6.22
2019-05-19T21:09:11.445Z,4.87
2019-05-19T21:11:41.061Z,7.05
2019-05-19T21:14:10.770Z,5.87
2019-05-19T21:16:43.044Z,6.53
2019-05-19T21:19:13.339Z,7.20
2019-05-19T21:21:42.955Z,9.88
2019-05-19T21:24:12.604Z,12.50
2019-05-19T21:26:46.312Z,5.25
2019-05-19T21:29:18.474Z,6.55
2019-05-19T21:31:48.108Z,10.98
2019-05-19T21:34:17.854Z,10.13
2019-05-19T21:36:47.503Z,8.33
2019-05-19T21:39:17.216Z,10.75
2019-05-19T21:41:46.879Z,9.33
2019-05-19T21:44:28.937Z,7.90
2019-05-19T21:46:58.614Z,5.65
2019-05-19T21:49:28.423Z,4.92
2019-05-19T21:51:58.037Z,6.97
2019-05-19T21:54:27.679Z,7.37
2019-05-19T21:56:57.284Z,5.53
2019-05-19T21:59:26.899Z,6.45
2019-05-19T22:01:56.810Z,8.38
2019-05-19T22:04:28.095Z,6.87
2019-05-19T22:07:05.815Z,11.08
2019-05-19T22:09:36.775Z,7.12
2019-05-19T22:12:06.423Z,5.67
2019-05-19T22:14:36.040Z,5.08
2019-05-19T22:17:05.669Z,10.03
2019-05-19T22:19:35.337Z,8.08
2019-05-19T22:22:05.039Z,5.95
2019-05-19T22:24:34.713Z,6.15
2019-05-19T22:27:04.420Z,6.47
2019-05-19T22:29:34.138Z,6.22
2019-05-19T22:32:06.753Z,9.70
2019-05-19T22:34:37.366Z,6.17
2019-05-19T22:37:06.998Z,8.03
2019-05-19T22:39:36.631Z,12.00
2019-05-19T22:42:06.332Z,8.65
2019-05-19T22:44:36.091Z,7.12
2019-05-19T22:47:08.905Z,6.10
2019-05-19T22:49:41.568Z,10.68
2019-05-19T22:52:11.199Z,8.05
2019-05-19T22:54:41.013Z,7.45
2019-05-19T22:57:19.178Z,8.18
2019-05-19T22:59:58.004Z,6.75
2019-05-19T23:02:27.673Z,8.45
2019-05-19T23:04:57.363Z,5.22
2019-05-19T23:07:27.076Z,8.40
2019-05-19T23:09:59.303Z,6.03
2019-05-19T23:12:28.930Z,5.50
2019-05-19T23:14:58.594Z,8.90
2019-05-19T23:17:28.479Z,10.63
2019-05-19T23:19:59.074Z,8.85
2019-05-19T23:22:28.703Z,11.48
2019-05-19T23:24:58.363Z,8.65
2019-05-19T23:27:27.982Z,7.30
2019-05-19T23:29:57.604Z,5.85
2019-05-19T23:32:27.283Z,7.70
2019-05-19T23:34:56.873Z,9.93
2019-05-19T23:37:27.658Z,6.97
2019-05-19T23:39:59.813Z,7.47
2019-05-19T23:42:29.417Z,5.87
2019-05-19T23:44:59.034Z,10.63
2019-05-19T23:47:28.687Z,12.93
2019-05-19T23:50:01.072Z,12.98
2019-05-19T23:52:31.790Z,12.03
2019-05-19T23:55:01.420Z,8.20
2019-05-19T23:57:31.043Z,6.60
